Time;durP1;ratioP1;P1;durP2;ratioP2;P2;SDS_P1;SDS_P2;PMS_P1;PMS_P2;Temp;Humidity;BMP_temperature;BMP_pressure;BME280_temperature;BME280_humidity;BME280_pressure;Samples;Min_cycle;Max_cycle;Signal;HPM_P1;HPM_P2
2023/07/14 00:00:08;;;;;;;0.10;0.10;;;;;;;18.57;78.89;100513.00;7340688;19;20066;-65
2023/07/14 00:02:33;;;;;;;0.10;0.10;;;;;;;18.57;78.63;100513.84;7340541;19;20377;-65
2023/07/14 00:05:00;;;;;;;0.10;0.10;;;;;;;18.58;78.91;100512.03;7340076;19;20022;-64
2023/07/14 00:07:26;;;;;;;0.10;0.10;;;;;;;18.57;78.71;100510.34;7341548;19;21026;-64
2023/07/14 00:09:52;;;;;;;0.10;0.10;;;;;;;18.59;78.98;100511.09;7342913;19;20023;-64
2023/07/14 00:12:18;;;;;;;0.10;0.10;;;;;;;18.59;78.96;100513.72;7339975;19;20010;-64
2023/07/14 00:14:45;;;;;;;0.00;0.00;;;;;;;18.60;78.65;100510.16;7340214;19;20097;-64
2023/07/14 00:17:14;;;;;;;0.10;0.10;;;;;;;18.58;78.34;100501.47;7342413;19;20011;-64
2023/07/14 00:19:40;;;;;;;0.10;0.10;;;;;;;18.58;79.11;100510.25;7341273;19;20026;-64
2023/07/14 00:22:14;;;;;;;0.05;0.05;;;;;;;18.61;78.07;100501.28;7342268;19;20021;-64
2023/07/14 00:24:42;;;;;;;0.10;0.10;;;;;;;18.49;78.74;100494.06;7341299;19;20581;-64
2023/07/14 00:27:17;;;;;;;0.10;0.10;;;;;;;18.61;78.16;100503.94;7340008;19;20716;-64
2023/07/14 00:29:45;;;;;;;0.10;0.10;;;;;;;18.58;78.77;100501.47;7341542;19;20015;-64
2023/07/14 00:32:17;;;;;;;0.10;0.10;;;;;;;18.57;78.64;100494.47;7339941;19;20024;-64
2023/07/14 00:34:43;;;;;;;0.10;0.10;;;;;;;18.52;78.76;100493.91;7339030;19;20018;-64
2023/07/14 00:37:09;;;;;;;0.10;0.10;;;;;;;18.56;78.77;100498.06;7342974;19;20570;-64
2023/07/14 00:39:35;;;;;;;0.10;0.10;;;;;;;18.56;78.92;100487.50;7340470;19;20735;-64
2023/07/14 00:42:03;;;;;;;0.10;0.10;;;;;;;18.55;78.98;100498.97;7342509;19;20019;-64
2023/07/14 00:44:30;;;;;;;0.00;0.00;;;;;;;18.55;79.08;100494.56;7336203;19;20812;-64
2023/07/14 00:46:55;;;;;;;0.10;0.10;;;;;;;18.55;79.02;100493.69;7340565;19;20090;-64
2023/07/14 00:49:40;;;;;;;0.10;0.10;;;;;;;18.58;77.86;100490.88;7338890;19;20023;-64
2023/07/14 00:52:22;;;;;;;0.10;0.10;;;;;;;18.57;77.81;100483.91;7342106;19;20026;-64
2023/07/14 00:54:51;;;;;;;0.10;0.10;;;;;;;18.46;78.67;100473.13;7339972;19;20041;-64
2023/07/14 00:57:18;;;;;;;0.10;0.10;;;;;;;18.53;79.06;100483.22;7344664;19;20049;-64
2023/07/14 00:59:44;;;;;;;0.10;0.10;;;;;;;18.52;78.63;100473.59;7347504;19;20034;-64
2023/07/14 01:02:19;;;;;;;0.05;0.05;;;;;;;18.54;78.15;100473.50;7340972;19;20749;-64
2023/07/14 01:04:52;;;;;;;0.10;0.10;;;;;;;18.51;77.51;100468.41;7346884;19;20035;-64
2023/07/14 01:07:21;;;;;;;0.10;0.10;;;;;;;18.51;78.19;100468.41;7348188;19;20010;-64
2023/07/14 01:09:47;;;;;;;0.00;0.00;;;;;;;18.34;78.25;100451.72;7353169;19;20045;-64
2023/07/14 01:12:17;;;;;;;0.10;0.10;;;;;;;18.48;78.14;100468.56;7357119;19;20150;-64
2023/07/14 01:14:46;;;;;;;0.10;0.10;;;;;;;18.46;78.40;100470.47;7353999;19;20569;-64
2023/07/14 01:17:12;;;;;;;0.10;0.10;;;;;;;18.40;78.39;100461.09;7351716;19;20019;-64
2023/07/14 01:19:46;;;;;;;0.10;0.10;;;;;;;18.42;78.02;100465.34;7356475;19;20041;-64
2023/07/14 01:22:36;;;;;;;0.00;0.00;;;;;;;18.42;77.17;100454.78;7353977;19;20304;-64
2023/07/14 01:25:20;;;;;;;0.10;0.10;;;;;;;18.37;77.12;100451.53;7355453;19;20604;-64
2023/07/14 01:27:46;;;;;;;0.10;0.10;;;;;;;18.30;78.82;100439.66;7355074;19;20018;-64
2023/07/14 01:30:12;;;;;;;0.10;0.10;;;;;;;18.25;78.83;100440.81;7354010;19;20018;-64
2023/07/14 01:32:43;;;;;;;0.10;0.10;;;;;;;18.29;78.73;100431.78;7351990;19;20710;-64
2023/07/14 01:35:09;;;;;;;0.10;0.10;;;;;;;18.26;79.16;100430.19;7353845;19;20018;-64
2023/07/14 01:37:37;;;;;;;0.10;0.10;;;;;;;18.25;78.90;100428.50;7354672;19;20014;-64
2023/07/14 01:40:06;;;;;;;;;;;;;;;18.28;75.54;100420.38;7354371;19;20011;-64
2023/07/14 01:42:33;;;;;;;0.05;0.05;;;;;;;18.24;78.47;100413.56;7354716;19;19925;-64
2023/07/14 01:44:59;;;;;;;0.20;0.20;;;;;;;18.22;78.52;100412.81;7350164;19;20003;-64
2023/07/14 01:47:25;;;;;;;0.10;0.10;;;;;;;18.14;78.67;100404.47;7356439;19;20014;-64
2023/07/14 01:49:51;;;;;;;0.10;0.10;;;;;;;18.16;78.59;100413.16;7350501;19;20027;-65
2023/07/14 01:52:24;;;;;;;0.10;0.10;;;;;;;18.15;78.64;100411.47;7354041;19;20006;-64
2023/07/14 01:55:04;;;;;;;0.10;0.10;;;;;;;18.13;78.16;100406.25;7348588;19;20448;-64
2023/07/14 01:57:33;;;;;;;0.00;0.00;;;;;;;18.10;79.00;100405.59;7351970;19;20070;-64
2023/07/14 02:00:05;;;;;;;0.10;0.10;;;;;;;18.01;78.58;100382.34;7351465;19;20018;-64
2023/07/14 02:02:34;;;;;;;0.08;0.08;;;;;;;18.01;79.07;100387.66;7349552;19;20007;-64
2023/07/14 02:05:04;;;;;;;0.10;0.10;;;;;;;18.07;79.03;100400.50;7348857;19;20042;-61
2023/07/14 02:07:30;;;;;;;0.10;0.10;;;;;;;17.94;79.36;100379.19;7349878;19;20604;-64
2023/07/14 02:09:56;;;;;;;0.10;0.10;;;;;;;18.03;79.32;100385.75;7348999;19;20014;-64
2023/07/14 02:12:28;;;;;;;0.10;0.10;;;;;;;18.05;78.71;100381.25;7351812;19;20010;-64
2023/07/14 02:15:07;;;;;;;0.10;0.10;;;;;;;18.01;79.19;100382.34;7350443;19;20773;-64
2023/07/14 02:17:34;;;;;;;0.10;0.10;;;;;;;18.00;79.38;100372.75;7353243;19;20010;-64
2023/07/14 02:20:04;;;;;;;0.03;0.03;;;;;;;17.99;79.13;100371.00;7349863;19;20089;-63
2023/07/14 02:22:31;;;;;;;0.10;0.10;;;;;;;17.97;79.27;100372.91;7345467;19;20027;-63
2023/07/14 02:24:58;;;;;;;0.10;0.10;;;;;;;17.95;79.37;100372.16;7353315;19;20019;-64
2023/07/14 02:27:24;;;;;;;0.10;0.10;;;;;;;17.91;79.25;100363.56;7353196;19;20042;-64
2023/07/14 02:29:50;;;;;;;0.10;0.10;;;;;;;17.88;79.12;100361.91;7344068;19;20007;-63
2023/07/14 02:32:32;;;;;;;0.10;0.10;;;;;;;17.88;78.29;100351.34;7351099;19;20702;-64
2023/07/14 02:35:33;;;;;;;0.00;0.00;;;;;;;17.85;78.02;100351.56;7351574;19;20037;-64
2023/07/14 02:38:12;;;;;;;0.10;0.10;;;;;;;17.80;79.12;100340.41;7247106;19;2004596;-63
2023/07/14 02:40:44;;;;;;;0.10;0.10;;;;;;;17.78;79.60;100342.28;7352999;19;20015;-63
2023/07/14 02:43:12;;;;;;;0.10;0.10;;;;;;;17.74;79.21;100335.50;7349282;19;20905;-64
2023/07/14 02:45:55;;;;;;;0.10;0.10;;;;;;;17.74;79.24;100332.84;7352765;19;20006;-63
2023/07/14 02:48:30;;;;;;;0.10;0.10;;;;;;;17.69;79.41;100326.94;7349746;19;20010;-63
2023/07/14 02:50:57;;;;;;;0.10;0.10;;;;;;;17.66;79.83;100331.56;7350397;19;20404;-65
2023/07/14 02:53:22;;;;;;;0.00;0.00;;;;;;;17.61;79.60;100318.63;7351197;19;20038;-63
2023/07/14 02:55:48;;;;;;;0.10;0.10;;;;;;;17.58;79.60;100319.63;7346115;19;20110;-63
2023/07/14 02:58:13;;;;;;;0.10;0.10;;;;;;;17.56;79.66;100312.75;7352597;19;20105;-63
2023/07/14 03:00:38;;;;;;;0.10;0.10;;;;;;;17.49;80.06;100300.84;7347997;19;20015;-64
2023/07/14 03:03:04;;;;;;;0.03;0.03;;;;;;;17.50;79.83;100310.47;7351505;19;20014;-63
2023/07/14 03:05:29;;;;;;;0.10;0.10;;;;;;;17.48;79.99;100299.97;7350111;19;20107;-63
2023/07/14 03:07:55;;;;;;;0.10;0.10;;;;;;;17.45;80.08;100302.81;7351716;19;20017;-63
2023/07/14 03:10:20;;;;;;;0.10;0.10;;;;;;;17.43;80.13;100296.75;7342296;19;20617;-63
2023/07/14 03:12:45;;;;;;;0.10;0.10;;;;;;;17.41;80.31;100289.88;7349385;19;20026;-63
2023/07/14 03:15:11;;;;;;;0.10;0.10;;;;;;;17.38;79.96;100291.72;7342505;19;20038;-62
2023/07/14 03:17:36;;;;;;;0.08;0.08;;;;;;;17.37;80.44;100287.41;7351148;19;20006;-63
2023/07/14 03:20:02;;;;;;;0.10;0.10;;;;;;;17.34;80.27;100278.81;7329651;19;20033;-63
2023/07/14 03:22:30;;;;;;;0.10;0.10;;;;;;;17.32;80.19;100278.03;7348569;19;20010;-63
2023/07/14 03:24:58;;;;;;;0.10;0.10;;;;;;;17.31;80.19;100276.34;7349977;19;20090;-63
2023/07/14 03:27:23;;;;;;;;;;;;;;;17.32;78.08;100276.25;7352133;19;20479;-63
2023/07/14 03:29:48;;;;;;;0.10;0.10;;;;;;;17.27;79.84;100273.03;7349393;19;19937;-63
2023/07/14 03:32:14;;;;;;;0.10;0.10;;;;;;;17.25;80.10;100274.91;7349642;19;20003;-63
2023/07/14 03:34:40;;;;;;;0.10;0.10;;;;;;;17.12;80.23;100253.66;7347968;19;20010;-63
2023/07/14 03:37:06;;;;;;;0.10;0.10;;;;;;;17.20;80.07;100271.69;7349844;19;20010;-63
2023/07/14 03:39:31;;;;;;;0.10;0.10;;;;;;;17.16;80.04;100266.69;7349212;19;20018;-63
2023/07/14 03:41:58;;;;;;;0.10;0.10;;;;;;;17.02;80.53;100246.34;7355833;19;20011;-63
2023/07/14 03:44:24;;;;;;;0.10;0.10;;;;;;;17.09;80.44;100247.72;7355512;19;20013;-63
2023/07/14 03:46:50;;;;;;;0.10;0.10;;;;;;;17.04;80.46;100239.22;7351122;19;20882;-63
2023/07/14 03:49:16;;;;;;;0.10;0.10;;;;;;;17.02;80.31;100235.78;7354014;19;20110;-63
2023/07/14 03:51:42;;;;;;;0.05;0.05;;;;;;;16.99;80.50;100230.72;7351972;19;20037;-63
2023/07/14 03:54:09;;;;;;;0.10;0.10;;;;;;;16.95;80.32;100229.16;7349133;19;20010;-64
2023/07/14 03:56:34;;;;;;;0.08;0.08;;;;;;;16.91;80.19;100232.91;7353391;19;20026;-62
2023/07/14 03:59:00;;;;;;;0.10;0.10;;;;;;;16.59;80.33;100180.16;7345736;19;20025;-63
2023/07/14 04:01:25;;;;;;;0.10;0.10;;;;;;;16.71;80.27;100195.31;7353527;19;20103;-63
2023/07/14 04:03:51;;;;;;;0.00;0.00;;;;;;;16.81;80.55;100220.25;7353708;19;20010;-62
2023/07/14 04:06:17;;;;;;;0.10;0.10;;;;;;;16.79;80.68;100214.22;7354708;19;20010;-63
2023/07/14 04:08:44;;;;;;;0.10;0.10;;;;;;;16.77;80.90;100215.22;7351423;19;20022;-63
2023/07/14 04:11:10;;;;;;;0.10;0.10;;;;;;;16.75;81.11;100212.69;7355685;19;20033;-63
2023/07/14 04:13:36;;;;;;;0.10;0.10;;;;;;;16.73;81.18;100204.03;7352627;19;20472;-63
2023/07/14 04:16:03;;;;;;;0.10;0.10;;;;;;;16.73;81.19;100201.38;7354554;19;20736;-63
2023/07/14 04:18:30;;;;;;;0.10;0.10;;;;;;;16.73;81.26;100198.75;7351115;19;20030;-63
2023/07/14 04:21:02;;;;;;;0.10;0.10;;;;;;;16.74;81.16;100192.53;7356162;19;20066;-63
2023/07/14 04:23:28;;;;;;;0.10;0.10;;;;;;;16.73;80.99;100182.94;7354890;19;20792;-63
2023/07/14 04:25:54;;;;;;;0.10;0.10;;;;;;;16.74;81.07;100174.06;7351288;19;20023;-63
2023/07/14 04:28:20;;;;;;;0.10;0.10;;;;;;;16.66;80.82;100157.78;7354005;19;20014;-63
2023/07/14 04:30:56;;;;;;;0.00;0.00;;;;;;;16.77;80.36;100167.75;7355227;19;20612;-63
2023/07/14 04:33:22;;;;;;;0.10;0.10;;;;;;;16.76;81.06;100161.63;7359026;19;20479;-63
2023/07/14 04:35:49;;;;;;;0.10;0.10;;;;;;;16.78;81.14;100161.56;7358776;19;20049;-63
2023/07/14 04:38:15;;;;;;;0.10;0.10;;;;;;;16.79;81.17;100153.56;7359776;19;20043;-63
2023/07/14 04:40:41;;;;;;;0.10;0.10;;;;;;;16.81;81.16;100156.09;7360858;19;20022;-63
2023/07/14 04:43:06;;;;;;;0.00;0.00;;;;;;;16.82;80.74;100150.72;7357008;19;20636;-63
2023/07/14 04:45:36;;;;;;;0.10;0.10;;;;;;;16.75;80.71;100138.84;7360286;19;20025;-63
2023/07/14 04:48:02;;;;;;;0.10;0.10;;;;;;;16.85;80.57;100145.28;7358684;19;20077;-63
2023/07/14 04:50:27;;;;;;;0.10;0.10;;;;;;;16.86;79.83;100139.06;7354476;19;20075;-63
2023/07/14 04:52:53;;;;;;;0.10;0.10;;;;;;;16.89;79.60;100139.84;7359299;19;20025;-62
2023/07/14 04:55:18;;;;;;;0.10;0.10;;;;;;;16.89;79.03;100129.31;7352333;19;20019;-64
2023/07/14 04:57:43;;;;;;;0.10;0.10;;;;;;;16.89;79.54;100134.59;7358263;19;20026;-64
2023/07/14 05:00:11;;;;;;;0.10;0.10;;;;;;;16.89;78.80;100134.59;7357580;19;20022;-63
2023/07/14 05:02:36;;;;;;;0.10;0.10;;;;;;;16.89;79.22;100132.78;7352924;19;20532;-62
2023/07/14 05:05:12;;;;;;;0.10;0.10;;;;;;;16.92;78.42;100124.69;7359930;19;20030;-63
2023/07/14 05:07:37;;;;;;;0.10;0.10;;;;;;;16.91;79.49;100127.41;7359487;19;20648;-63
2023/07/14 05:10:03;;;;;;;0.10;0.10;;;;;;;16.91;79.67;100116.88;7355824;19;20098;-63
2023/07/14 05:12:28;;;;;;;0.10;0.10;;;;;;;16.92;79.83;100102.75;7359389;19;20011;-63
2023/07/14 05:14:53;;;;;;;0.00;0.00;;;;;;;16.92;79.65;100108.00;7360031;19;20051;-64
2023/07/14 05:17:19;;;;;;;0.10;0.10;;;;;;;16.96;80.12;100109.53;7358077;19;20002;-62
2023/07/14 05:19:44;;;;;;;0.10;0.10;;;;;;;16.97;79.45;100103.31;7360840;19;20023;-63
2023/07/14 05:22:09;;;;;;;0.10;0.10;;;;;;;16.97;79.65;100093.63;7355592;19;20007;-63
2023/07/14 05:24:35;;;;;;;0.10;0.10;;;;;;;17.01;79.30;100086.38;7359860;19;21155;-63
2023/07/14 05:27:00;;;;;;;0.10;0.10;;;;;;;17.03;79.25;100089.75;7355337;19;20010;-63
2023/07/14 05:29:26;;;;;;;0.10;0.10;;;;;;;16.93;79.17;100062.22;7359084;19;20093;-63
2023/07/14 05:31:51;;;;;;;0.10;0.10;;;;;;;17.07;79.40;100086.00;7356165;19;20830;-62
2023/07/14 05:34:17;;;;;;;0.10;0.10;;;;;;;17.01;79.30;100074.03;7357151;19;20879;-63
2023/07/14 05:36:42;;;;;;;0.10;0.10;;;;;;;17.08;79.06;100070.13;7357957;19;20010;-63
2023/07/14 05:39:07;;;;;;;0.10;0.10;;;;;;;17.15;79.00;100067.09;7353338;19;20021;-63
2023/07/14 05:41:33;;;;;;;0.10;0.10;;;;;;;17.17;79.04;100063.41;7358049;19;20412;-61
2023/07/14 05:43:58;;;;;;;0.00;0.00;;;;;;;17.19;78.46;100056.28;7355504;19;20438;-63
2023/07/14 05:46:24;;;;;;;0.10;0.10;;;;;;;17.21;78.25;100051.75;7354831;19;20022;-63
2023/07/14 05:48:49;;;;;;;0.10;0.10;;;;;;;17.24;78.11;100041.00;7359615;19;20015;-63
2023/07/14 05:51:14;;;;;;;0.10;0.10;;;;;;;17.26;77.73;100043.53;7352127;19;20014;-63
2023/07/14 05:53:40;;;;;;;0.10;0.10;;;;;;;17.27;77.44;100035.53;7354338;19;20002;-62
2023/07/14 05:56:05;;;;;;;0.10;0.10;;;;;;;17.27;77.40;100019.69;7356203;19;20002;-63
2023/07/14 05:58:31;;;;;;;0.00;0.00;;;;;;;17.28;77.48;100024.03;7347864;19;20007;-63
2023/07/14 06:00:56;;;;;;;0.00;0.00;;;;;;;17.31;77.27;100017.72;7358503;19;20018;-63
2023/07/14 06:03:22;;;;;;;0.10;0.10;;;;;;;17.29;77.63;100012.56;7355287;19;20098;-62
2023/07/14 06:05:48;;;;;;;0.10;0.10;;;;;;;17.32;78.19;100007.06;7348069;19;20014;-63
2023/07/14 06:08:15;;;;;;;0.10;0.10;;;;;;;17.33;77.58;100003.47;7353716;19;20493;-62
2023/07/14 06:10:40;;;;;;;0.10;0.10;;;;;;;17.33;77.66;100002.63;7350675;19;20049;-63
2023/07/14 06:13:06;;;;;;;0.10;0.10;;;;;;;17.35;77.40;100001.63;7352468;19;20387;-62
2023/07/14 06:15:31;;;;;;;0.10;0.10;;;;;;;17.30;78.07;99993.13;7354712;19;20018;-63
2023/07/14 06:17:56;;;;;;;0.10;0.10;;;;;;;17.40;78.27;99995.22;7353925;19;20010;-63
2023/07/14 06:20:22;;;;;;;0.10;0.10;;;;;;;17.34;77.54;99983.25;7357956;19;20093;-63
2023/07/14 06:22:48;;;;;;;0.10;0.10;;;;;;;17.43;77.71;99989.72;7352032;19;20560;-62
2023/07/14 06:25:14;;;;;;;0.10;0.10;;;;;;;17.44;77.57;100000.19;7356126;19;20354;-63
2023/07/14 06:27:39;;;;;;;0.10;0.10;;;;;;;17.46;76.96;99981.63;7353902;19;20010;-62
2023/07/14 06:30:05;;;;;;;0.10;0.10;;;;;;;17.47;77.17;99986.78;7357811;19;20045;-62
2023/07/14 06:32:31;;;;;;;0.10;0.10;;;;;;;17.49;77.01;99997.28;7352478;19;20057;-62
2023/07/14 06:34:56;;;;;;;0.00;0.00;;;;;;;17.50;76.56;99993.69;7354964;19;20014;-62
2023/07/14 06:37:24;;;;;;;0.10;0.10;;;;;;;17.50;75.91;99985.78;7350002;19;20089;-62
2023/07/14 06:39:50;;;;;;;0.10;0.10;;;;;;;17.45;75.91;99974.66;7356026;19;20032;-62
2023/07/14 06:42:16;;;;;;;0.10;0.10;;;;;;;17.45;76.29;99967.56;7353994;19;20462;-63
2023/07/14 06:44:42;;;;;;;0.00;0.00;;;;;;;17.47;76.52;99972.75;7353476;19;20014;-63
2023/07/14 06:47:07;;;;;;;0.00;0.00;;;;;;;17.47;76.28;99967.47;7352706;19;20017;-62
2023/07/14 06:49:33;;;;;;;0.10;0.10;;;;;;;17.46;76.17;99952.59;7354917;19;20033;-63
2023/07/14 06:51:58;;;;;;;0.10;0.10;;;;;;;17.45;76.76;99956.16;7354873;19;20526;-63
2023/07/14 06:54:24;;;;;;;0.10;0.10;;;;;;;17.43;76.04;99950.13;7343742;19;20029;-63
2023/07/14 06:56:49;;;;;;;0.10;0.10;;;;;;;17.43;76.07;99950.97;7351884;19;20014;-62
2023/07/14 06:59:15;;;;;;;0.10;0.10;;;;;;;17.42;75.80;99957.19;7355369;19;20086;-62
2023/07/14 07:01:41;;;;;;;0.10;0.10;;;;;;;17.40;76.74;99945.91;7355280;19;20025;-62
2023/07/14 07:04:06;;;;;;;0.10;0.10;;;;;;;17.36;76.46;99941.75;7352169;19;20486;-62
2023/07/14 07:06:32;;;;;;;0.10;0.10;;;;;;;17.35;76.75;99938.28;7351247;19;20011;-62
2023/07/14 07:08:57;;;;;;;0.10;0.10;;;;;;;17.34;77.09;99941.84;7342357;19;20015;-63
2023/07/14 07:11:22;;;;;;;0.10;0.10;;;;;;;17.28;77.14;99926.38;7334595;19;20022;-62
2023/07/14 07:13:48;;;;;;;0.10;0.10;;;;;;;17.31;77.41;99931.47;7350484;19;20018;-58
2023/07/14 07:16:15;;;;;;;0.10;0.10;;;;;;;17.27;76.08;99927.34;7355620;19;20042;-62
2023/07/14 07:18:40;;;;;;;0.10;0.10;;;;;;;17.30;76.06;99935.06;7351105;19;20674;-63
2023/07/14 07:21:07;;;;;;;0.10;0.10;;;;;;;17.28;76.23;99921.09;7347014;19;20011;-62
2023/07/14 07:23:33;;;;;;;0.10;0.10;;;;;;;17.15;76.62;99892.97;7352479;19;20025;-64
2023/07/14 07:25:58;;;;;;;0.10;0.10;;;;;;;17.24;76.65;99906.44;7351498;19;20022;-63
2023/07/14 07:28:24;;;;;;;0.10;0.10;;;;;;;17.16;76.67;99895.50;7354784;19;20006;-62
2023/07/14 07:30:50;;;;;;;0.10;0.10;;;;;;;17.26;75.80;99907.19;7351853;19;20434;-62
2023/07/14 07:33:15;;;;;;;0.00;0.00;;;;;;;17.26;75.86;99901.91;7348782;19;20019;-64
2023/07/14 07:35:42;;;;;;;0.10;0.10;;;;;;;17.26;74.89;99896.63;7325751;19;20346;-64
2023/07/14 07:38:10;;;;;;;0.10;0.10;;;;;;;17.21;75.78;99892.59;7348053;19;20109;-64
2023/07/14 07:40:39;;;;;;;0.10;0.10;;;;;;;17.21;75.79;99885.50;7344364;19;20030;-64
2023/07/14 07:43:04;;;;;;;0.10;0.10;;;;;;;17.22;75.97;99887.19;7343569;19;20913;-64
2023/07/14 07:45:30;;;;;;;0.10;0.10;;;;;;;17.19;75.51;99876.84;7343954;19;20013;-65
2023/07/14 07:47:56;;;;;;;0.10;0.10;;;;;;;17.09;75.92;99865.19;7342906;19;20017;-64
2023/07/14 07:50:22;;;;;;;0.10;0.10;;;;;;;17.22;75.46;99884.56;7344738;19;20018;-64
2023/07/14 07:52:48;;;;;;;0.10;0.10;;;;;;;17.20;75.59;99875.91;7344908;19;20012;-64
2023/07/14 07:55:13;;;;;;;0.10;0.10;;;;;;;17.21;75.74;99869.69;7340317;19;20670;-64
2023/07/14 07:57:40;;;;;;;0.10;0.10;;;;;;;17.20;76.02;99870.63;7340981;19;20751;-63
2023/07/14 08:00:06;;;;;;;0.10;0.10;;;;;;;17.20;76.71;99857.44;7345969;19;21398;-64
2023/07/14 08:02:35;;;;;;;0.00;0.00;;;;;;;17.20;76.25;99862.72;7329334;19;20007;-63
2023/07/14 08:05:01;;;;;;;0.10;0.10;;;;;;;17.16;76.04;99841.91;7339051;19;20017;-63
2023/07/14 08:07:26;;;;;;;0.03;0.03;;;;;;;17.16;76.68;99837.47;7345611;19;20016;-65
2023/07/14 08:09:53;;;;;;;0.10;0.10;;;;;;;17.17;75.49;99838.31;7344488;19;20081;-61
2023/07/14 08:12:19;;;;;;;0.10;0.10;;;;;;;17.14;76.24;99839.38;7345616;19;20011;-63
2023/07/14 08:14:54;;;;;;;0.10;0.10;;;;;;;17.15;75.80;99829.66;7343728;19;20021;-63
2023/07/14 08:17:28;;;;;;;0.00;0.00;;;;;;;17.11;75.83;99818.44;7342727;19;21060;-63
2023/07/14 08:19:53;;;;;;;0.10;0.10;;;;;;;17.05;76.97;99818.84;7337765;19;20053;-63
2023/07/14 08:22:23;;;;;;;0.10;0.10;;;;;;;17.04;75.85;99806.59;7346294;19;20010;-63
2023/07/14 08:24:48;;;;;;;0.10;0.10;;;;;;;17.02;75.16;99813.75;7343827;19;20827;-63
2023/07/14 08:27:16;;;;;;;0.10;0.10;;;;;;;17.00;76.15;99805.09;7344930;19;20014;-65
2023/07/14 08:29:42;;;;;;;0.10;0.10;;;;;;;16.98;76.13;99804.34;7343275;19;20038;-63
2023/07/14 08:32:08;;;;;;;0.10;0.10;;;;;;;16.96;76.67;99807.06;7341532;19;20014;-63
2023/07/14 08:34:34;;;;;;;0.10;0.10;;;;;;;16.95;77.02;99802.75;7345101;19;20101;-63
2023/07/14 08:37:00;;;;;;;0.10;0.10;;;;;;;16.94;76.36;99789.66;7334405;19;20742;-62
2023/07/14 08:39:26;;;;;;;0.10;0.10;;;;;;;16.62;76.72;99737.13;7352195;19;20011;-63
2023/07/14 08:41:56;;;;;;;0.10;0.10;;;;;;;16.91;76.63;99779.31;7350620;19;20053;-63
2023/07/14 08:44:44;;;;;;;0.10;0.10;;;;;;;16.93;75.54;99777.41;7347043;19;20030;-63
2023/07/14 08:47:18;;;;;;;0.05;0.05;;;;;;;16.86;75.58;99783.06;7250810;19;2004448;-64
2023/07/14 08:49:57;;;;;;;0.10;0.10;;;;;;;16.82;76.25;99770.19;7354678;19;20002;-63
2023/07/14 08:52:32;;;;;;;0.10;0.10;;;;;;;16.83;76.19;99761.34;7347103;19;20020;-64
2023/07/14 08:55:16;;;;;;;0.05;0.05;;;;;;;16.79;75.31;99755.41;7353158;19;20040;-63
2023/07/14 08:57:51;;;;;;;0.10;0.10;;;;;;;16.78;77.01;99737.91;7347190;19;20014;-63
2023/07/14 09:00:31;;;;;;;0.10;0.10;;;;;;;16.76;76.86;99734.50;7353148;19;20011;-64
2023/07/14 09:03:18;;;;;;;0.10;0.10;;;;;;;16.76;76.32;99729.22;7349217;19;20006;-64
2023/07/14 09:05:53;;;;;;;0.00;0.00;;;;;;;16.75;77.11;99722.28;7350862;19;20393;-64
2023/07/14 09:08:27;;;;;;;0.10;0.10;;;;;;;16.75;77.31;99716.16;7345563;19;20495;-65
2023/07/14 09:11:28;;;;;;;0.00;0.00;;;;;;;16.78;75.43;99701.00;7352091;19;20098;-65
2023/07/14 09:14:11;;;;;;;0.03;0.03;;;;;;;16.59;76.57;99674.09;7247965;19;2004443;-65
2023/07/14 09:16:48;;;;;;;0.10;0.10;;;;;;;16.74;75.93;99694.22;7349054;19;20014;-65
2023/07/14 09:19:19;;;;;;;;;;;;;;;16.74;73.87;99688.94;7360448;19;20770;-64
2023/07/14 09:21:52;;;;;;;0.10;0.10;;;;;;;16.71;74.91;99673.31;7357009;19;20667;-65
2023/07/14 09:24:20;;;;;;;0.10;0.10;;;;;;;16.67;76.79;99687.59;7356807;19;20010;-65
2023/07/14 09:26:51;;;;;;;0.10;0.10;;;;;;;16.65;76.71;99668.41;7355660;19;20078;-64
2023/07/14 09:29:30;;;;;;;0.10;0.10;;;;;;;16.63;76.86;99665.03;7358182;19;20007;-64
2023/07/14 09:32:04;;;;;;;0.08;0.08;;;;;;;16.61;77.44;99666.91;7359222;19;20437;-65
2023/07/14 09:34:57;;;;;;;0.10;0.10;;;;;;;16.62;75.94;99647.50;7357436;19;20665;-65
2023/07/14 09:37:32;;;;;;;0.10;0.10;;;;;;;16.58;76.47;99630.22;7255477;19;2004523;-64
2023/07/14 09:40:34;;;;;;;0.10;0.10;;;;;;;16.59;75.25;99629.28;7356706;19;20014;-65
2023/07/14 09:43:01;;;;;;;0.10;0.10;;;;;;;16.33;76.63;99605.44;7253095;19;2004331;-64
2023/07/14 09:45:32;;;;;;;0.10;0.10;;;;;;;16.53;76.64;99611.22;7355838;19;20547;-65
2023/07/14 09:48:22;;;;;;;0.10;0.10;;;;;;;16.52;77.73;99605.09;7359106;19;20023;-65
2023/07/14 09:51:03;;;;;;;0.05;0.05;;;;;;;16.53;76.87;99596.25;7357351;19;20729;-65
2023/07/14 09:53:31;;;;;;;0.10;0.10;;;;;;;16.43;77.84;99579.34;7351877;19;20018;-65
2023/07/14 09:56:03;;;;;;;0.10;0.10;;;;;;;16.52;76.99;99588.44;7356466;19;20060;-65
2023/07/14 09:58:31;;;;;;;0.10;0.10;;;;;;;16.53;77.50;99584.88;7352049;19;20014;-65
2023/07/14 10:00:59;;;;;;;0.10;0.10;;;;;;;16.52;76.90;99577.88;7359528;19;20464;-65
2023/07/14 10:03:30;;;;;;;0.10;0.10;;;;;;;16.53;77.11;99563.78;7357239;19;20014;-65
2023/07/14 10:06:13;;;;;;;0.10;0.10;;;;;;;16.56;76.98;99555.66;7358019;19;20033;-65
2023/07/14 10:08:56;;;;;;;0.10;0.10;;;;;;;16.46;76.22;99546.69;7357147;19;20074;-65
2023/07/14 10:11:37;;;;;;;0.10;0.10;;;;;;;16.56;76.98;99545.97;7357937;19;20018;-65
2023/07/14 10:14:26;;;;;;;0.10;0.10;;;;;;;16.58;76.69;99545.88;7357073;19;20028;-65
2023/07/14 10:16:56;;;;;;;0.10;0.10;;;;;;;16.54;77.56;99533.84;7355183;19;20479;-65
2023/07/14 10:19:31;;;;;;;0.10;0.10;;;;;;;16.54;77.74;99518.03;7361615;19;20357;-58
2023/07/14 10:22:11;;;;;;;0.10;0.10;;;;;;;16.50;76.75;99506.00;7358392;19;20077;-59
2023/07/14 10:24:37;;;;;;;0.10;0.10;;;;;;;16.54;78.03;99499.59;7358089;19;20007;-59
2023/07/14 10:27:18;;;;;;;0.10;0.10;;;;;;;16.57;77.22;99487.06;7359106;19;20010;-58
2023/07/14 10:30:05;;;;;;;0.10;0.10;;;;;;;16.56;76.84;99492.41;7355972;19;20453;-59
2023/07/14 10:32:30;;;;;;;0.10;0.10;;;;;;;16.53;77.67;99480.31;7356435;19;21463;-59
2023/07/14 10:35:03;;;;;;;0.10;0.10;;;;;;;16.54;77.52;99467.97;7355317;19;20010;-58
2023/07/14 10:37:39;;;;;;;0.10;0.10;;;;;;;16.54;77.86;99470.59;7355641;19;20038;-59
2023/07/14 10:40:14;;;;;;;0.10;0.10;;;;;;;16.53;76.52;99469.75;7358773;19;20006;-59
2023/07/14 10:43:21;;;;;;;0.10;0.10;;;;;;;16.53;76.80;99467.13;7356483;19;20018;-58
2023/07/14 10:45:58;;;;;;;0.10;0.10;;;;;;;16.51;77.88;99468.16;7251618;19;2004709;-59
2023/07/14 10:48:39;;;;;;;0.10;0.10;;;;;;;16.48;77.96;99455.22;7360807;19;20040;-58
2023/07/14 10:51:10;;;;;;;0.00;0.00;;;;;;;16.47;77.78;99448.22;7353823;19;20006;-59
2023/07/14 10:53:55;;;;;;;0.10;0.10;;;;;;;16.43;77.22;99437.06;7356991;19;20021;-58
2023/07/14 10:56:29;;;;;;;0.10;0.10;;;;;;;16.47;78.03;99429.78;7355494;19;20042;-59
2023/07/14 10:59:13;;;;;;;0.10;0.10;;;;;;;16.45;77.93;99429.06;7356896;19;20589;-59
2023/07/14 11:01:41;;;;;;;0.10;0.10;;;;;;;16.43;78.65;99415.16;7357284;19;20113;-58
2023/07/14 11:04:37;;;;;;;0.10;0.10;;;;;;;16.47;77.35;99416.59;7356050;19;20462;-59
2023/07/14 11:07:05;;;;;;;0.10;0.10;;;;;;;16.41;78.79;99412.59;7251740;19;2004491;-58
2023/07/14 11:09:31;;;;;;;0.10;0.10;;;;;;;16.42;79.15;99397.63;7357576;19;20019;-59
2023/07/14 11:12:05;;;;;;;0.10;0.10;;;;;;;16.45;78.59;99377.19;7355210;19;20390;-58
2023/07/14 11:14:44;;;;;;;0.03;0.03;;;;;;;16.46;78.89;99381.50;7355561;19;20013;-59
2023/07/14 11:17:30;;;;;;;0.03;0.03;;;;;;;16.47;79.34;99372.66;7356396;19;20018;-59
2023/07/14 11:20:03;;;;;;;0.10;0.10;;;;;;;16.50;78.10;99380.34;7359924;19;20014;-59
2023/07/14 11:22:53;;;;;;;0.10;0.10;;;;;;;16.56;78.03;99358.00;7356849;19;20007;-59
2023/07/14 11:25:23;;;;;;;0.10;0.10;;;;;;;16.54;78.74;99370.47;7356220;19;20010;-59
2023/07/14 11:28:07;;;;;;;0.10;0.10;;;;;;;16.58;78.21;99350.84;7355901;19;20014;-59
2023/07/14 11:30:39;;;;;;;0.10;0.10;;;;;;;16.46;78.89;99320.06;7355902;19;20015;-58
2023/07/14 11:33:29;;;;;;;0.10;0.10;;;;;;;16.61;77.92;99329.53;7357195;19;20017;-59
2023/07/14 11:36:16;;;;;;;0.10;0.10;;;;;;;16.63;77.79;99316.28;7349906;19;20011;-59
2023/07/14 11:38:47;;;;;;;;;;;;;;;16.63;77.08;99317.13;7352968;19;20016;-59
2023/07/14 11:41:15;;;;;;;0.10;0.10;;;;;;;16.58;79.02;99303.41;7355639;19;19919;-59